Lycan, Colorado
Current Conditions -  °F | °C
As of 9:53 AM on Wednesday 22 Oct 2014 (Local Time) from KLAA Reporting Station
Scattered Clouds Scattered Clouds  
Wind Chill: 64°   Ceiling: Unl
Heat Index: 64°   Visibility: 10mi
Dew Point: 49°   Wind: 8mph
Humidity: 58%   Direction: 280°W
Pressure: 30.04"   Gusts: NA
Location:  37.5696°N, 102.293°W
Report Text: KLAA 221553Z AUTO 28007KT 10SM SCT110 18/09 A3004 RMK AO2 SLP137 T01780094
Loading
Personal Weather Stations






























Interactive Weather Map
Tropical Storm Tracking
New forecast layout! Learn more

10-Day Weather Forecast

Advertisements
Track Severe Weather on mobile